createdAt,value
2022-07-29T00:01:08.844Z,23.33
2022-07-29T00:03:47.213Z,23.26
2022-07-29T00:06:15.194Z,23.29
2022-07-29T00:08:42.160Z,23.29
2022-07-29T00:11:09.080Z,23.27
2022-07-29T00:13:36.023Z,23.16
2022-07-29T00:18:33.080Z,22.99
2022-07-29T00:21:00.389Z,22.93
2022-07-29T00:23:27.398Z,22.87
2022-07-29T00:25:54.412Z,22.87
2022-07-29T00:28:21.366Z,22.88
2022-07-29T00:30:48.413Z,22.74
2022-07-29T00:33:15.390Z,22.72
2022-07-29T00:35:45.001Z,22.72
2022-07-29T00:38:17.666Z,22.82
2022-07-29T00:40:45.798Z,22.74
2022-07-29T00:43:14.884Z,22.80
2022-07-29T00:45:45.326Z,22.79
2022-07-29T00:48:12.398Z,22.71
2022-07-29T00:50:39.936Z,22.72
2022-07-29T00:53:08.869Z,22.66
2022-07-29T00:55:36.567Z,22.55
2022-07-29T00:58:04.162Z,22.60
2022-07-29T01:00:31.801Z,22.54
2022-07-29T01:02:59.069Z,22.63
2022-07-29T01:05:51.115Z,22.63
2022-07-29T01:08:17.026Z,22.60
2022-07-29T01:10:46.630Z,22.63
2022-07-29T01:13:15.673Z,22.50
2022-07-29T01:15:49.307Z,22.54
2022-07-29T01:18:31.255Z,22.61
2022-07-29T01:21:43.179Z,22.59
2022-07-29T01:24:45.345Z,22.52
2022-07-29T01:28:08.628Z,22.40
2022-07-29T01:30:43.008Z,22.29
2022-07-29T01:33:36.256Z,22.24
2022-07-29T01:36:13.030Z,22.30
2022-07-29T01:38:46.346Z,22.33
2022-07-29T01:41:20.554Z,22.26
2022-07-29T01:43:59.262Z,22.25
2022-07-29T01:46:35.972Z,22.19
2022-07-29T01:49:21.147Z,22.08
2022-07-29T01:52:04.391Z,22.03
2022-07-29T01:54:43.922Z,22.00
2022-07-29T01:57:20.841Z,21.88
2022-07-29T01:59:49.534Z,21.82
2022-07-29T02:02:19.310Z,21.77
2022-07-29T02:04:49.644Z,21.82
2022-07-29T02:07:23.431Z,21.70
2022-07-29T02:09:52.941Z,21.68
2022-07-29T02:12:22.708Z,21.58
2022-07-29T02:14:54.940Z,21.66
2022-07-29T02:17:40.198Z,21.63
2022-07-29T02:20:09.376Z,21.55
2022-07-29T02:22:40.276Z,21.50
2022-07-29T02:25:13.797Z,21.50
2022-07-29T02:27:43.607Z,21.50
2022-07-29T02:30:13.276Z,21.52
2022-07-29T02:32:42.677Z,21.48
2022-07-29T02:35:13.259Z,21.32
2022-07-29T02:37:42.060Z,21.31
2022-07-29T02:40:12.762Z,21.33
2022-07-29T02:42:44.990Z,21.22
2022-07-29T02:45:12.266Z,21.19
2022-07-29T02:47:48.713Z,21.19
2022-07-29T02:50:22.576Z,21.23
2022-07-29T02:53:10.229Z,21.19
2022-07-29T02:55:59.999Z,21.06
2022-07-29T02:58:47.826Z,21.00
2022-07-29T03:01:21.863Z,21.10
2022-07-29T03:03:52.686Z,21.14
2022-07-29T03:06:31.128Z,21.09
2022-07-29T03:09:12.828Z,20.90
2022-07-29T03:11:49.925Z,21.05
2022-07-29T03:14:21.729Z,20.99
2022-07-29T03:16:50.369Z,20.97
2022-07-29T03:19:18.924Z,20.89
2022-07-29T03:21:46.113Z,20.88
2022-07-29T03:24:29.632Z,20.94
2022-07-29T03:26:57.680Z,20.86
2022-07-29T03:29:25.761Z,20.78
2022-07-29T03:32:07.933Z,20.78
2022-07-29T03:34:37.629Z,20.81
2022-07-29T03:37:06.907Z,20.75
2022-07-29T03:39:41.530Z,20.66
2022-07-29T03:42:12.762Z,20.58
2022-07-29T03:44:44.080Z,20.67
2022-07-29T03:47:14.924Z,20.68
2022-07-29T03:49:45.331Z,20.57
2022-07-29T03:52:12.317Z,20.48
2022-07-29T03:54:40.171Z,20.40
2022-07-29T03:57:09.426Z,20.44
2022-07-29T03:59:37.565Z,20.40
2022-07-29T04:02:06.664Z,20.34
2022-07-29T04:04:35.734Z,20.23
2022-07-29T04:07:03.044Z,20.21
2022-07-29T04:09:30.269Z,20.23
2022-07-29T04:12:03.269Z,20.21
2022-07-29T04:14:35.709Z,20.23
2022-07-29T04:17:05.082Z,20.30
2022-07-29T04:19:33.223Z,20.27
2022-07-29T04:22:01.682Z,20.23
2022-07-29T04:24:28.855Z,20.24
2022-07-29T04:26:56.517Z,20.18
2022-07-29T04:29:23.457Z,20.09
2022-07-29T04:31:50.469Z,20.05
2022-07-29T04:34:17.834Z,20.02
2022-07-29T04:36:45.316Z,20.18
2022-07-29T04:39:12.428Z,20.16
2022-07-29T04:41:39.379Z,20.10
2022-07-29T04:44:06.913Z,20.14
2022-07-29T04:46:35.705Z,20.08
2022-07-29T04:49:04.331Z,20.11
2022-07-29T04:51:31.632Z,20.09
2022-07-29T04:53:58.666Z,20.10
2022-07-29T04:56:25.660Z,20.11
2022-07-29T04:58:53.330Z,20.12
2022-07-29T05:01:20.867Z,20.24
2022-07-29T05:03:47.869Z,20.27
2022-07-29T05:06:14.799Z,20.30
2022-07-29T05:08:42.089Z,20.36
2022-07-29T05:11:11.439Z,20.40
2022-07-29T05:13:45.790Z,20.52
2022-07-29T05:16:14.854Z,20.53
2022-07-29T05:18:43.054Z,20.57
2022-07-29T05:21:10.179Z,20.59
2022-07-29T05:23:37.153Z,20.64
2022-07-29T05:26:04.251Z,20.77
2022-07-29T05:28:35.958Z,20.79
2022-07-29T05:31:03.232Z,20.75
2022-07-29T05:33:35.372Z,20.87
2022-07-29T05:36:08.183Z,20.85
2022-07-29T05:38:36.940Z,20.91
2022-07-29T05:41:05.114Z,20.96
2022-07-29T05:43:32.146Z,20.97
2022-07-29T05:45:59.609Z,21.09
2022-07-29T05:48:26.828Z,21.20
2022-07-29T05:50:53.858Z,21.23
2022-07-29T05:53:21.282Z,21.35
2022-07-29T05:55:52.592Z,21.36
2022-07-29T05:58:19.702Z,21.44
2022-07-29T06:00:46.809Z,21.43
2022-07-29T06:03:13.797Z,21.52
2022-07-29T06:05:40.883Z,21.57
2022-07-29T06:08:08.503Z,21.66
2022-07-29T06:10:38.791Z,21.82
2022-07-29T06:13:06.225Z,21.90
2022-07-29T06:15:34.300Z,21.99
2022-07-29T06:18:02.448Z,22.06
2022-07-29T06:20:31.838Z,22.16
2022-07-29T06:22:59.746Z,22.15
2022-07-29T06:25:30.008Z,22.20
2022-07-29T06:27:57.877Z,22.14
2022-07-29T06:30:25.024Z,22.24
2022-07-29T06:32:52.139Z,22.16
2022-07-29T06:35:41.822Z,22.17
2022-07-29T06:38:25.092Z,22.35
2022-07-29T06:41:02.806Z,22.39
2022-07-29T06:43:51.081Z,22.52
2022-07-29T06:46:21.808Z,22.48
2022-07-29T06:48:49.868Z,22.44
2022-07-29T06:51:22.977Z,22.48
2022-07-29T06:53:58.169Z,22.57
2022-07-29T06:56:27.445Z,22.57
2022-07-29T06:58:54.448Z,22.46
2022-07-29T07:01:21.804Z,22.60
2022-07-29T07:03:48.894Z,22.78
2022-07-29T07:06:16.016Z,22.83
2022-07-29T07:08:43.053Z,22.88
2022-07-29T07:11:10.309Z,22.79
2022-07-29T07:13:37.319Z,22.84
2022-07-29T07:16:05.439Z,22.79
2022-07-29T07:18:32.900Z,22.65
2022-07-29T07:20:59.897Z,22.67
2022-07-29T07:23:26.995Z,22.67
2022-07-29T07:25:54.166Z,22.78
2022-07-29T07:28:24.551Z,23.00
2022-07-29T07:30:53.008Z,22.89
2022-07-29T07:33:20.293Z,23.17
2022-07-29T07:35:47.923Z,23.38
2022-07-29T07:38:14.958Z,23.16
2022-07-29T07:40:45.077Z,23.06
2022-07-29T07:43:11.997Z,23.13
2022-07-29T07:48:06.334Z,23.29
2022-07-29T07:50:33.419Z,23.43
2022-07-29T07:53:02.931Z,23.31
2022-07-29T07:55:42.454Z,23.43
2022-07-29T07:58:17.242Z,23.85
2022-07-29T08:00:44.576Z,23.81
2022-07-29T08:03:17.015Z,23.61
2022-07-29T08:05:44.968Z,23.83
2022-07-29T08:08:11.981Z,24.02
2022-07-29T08:10:54.548Z,24.16
2022-07-29T08:13:24.167Z,24.36
2022-07-29T08:16:12.571Z,24.22
2022-07-29T08:18:41.845Z,24.13
2022-07-29T08:21:09.232Z,24.16
2022-07-29T08:23:46.083Z,24.08
2022-07-29T08:26:16.217Z,24.06
2022-07-29T08:28:51.219Z,24.16
2022-07-29T08:31:19.073Z,24.12
2022-07-29T08:33:46.201Z,23.98
2022-07-29T08:36:14.150Z,23.96
2022-07-29T08:38:41.205Z,24.08
2022-07-29T08:41:08.385Z,24.06
2022-07-29T08:43:38.241Z,24.09
2022-07-29T08:46:05.531Z,24.15
2022-07-29T08:48:33.429Z,24.32
2022-07-29T08:51:01.812Z,24.67
2022-07-29T08:53:30.598Z,24.81
2022-07-29T08:55:59.294Z,24.78
2022-07-29T08:58:31.758Z,24.87
2022-07-29T09:01:03.369Z,24.99
2022-07-29T09:03:35.573Z,25.22
2022-07-29T09:06:04.139Z,25.40
2022-07-29T09:08:33.725Z,25.07
2022-07-29T09:11:05.579Z,25.22
2022-07-29T09:13:32.801Z,25.18
2022-07-29T09:15:59.968Z,25.20
2022-07-29T09:18:45.523Z,25.48
2022-07-29T09:21:35.484Z,25.56
2022-07-29T09:24:14.278Z,25.66
2022-07-29T09:26:43.931Z,25.68
2022-07-29T09:29:14.979Z,25.76
2022-07-29T09:31:48.112Z,25.84
2022-07-29T09:34:21.930Z,25.95
2022-07-29T09:36:51.729Z,26.09
2022-07-29T09:39:33.081Z,26.09
2022-07-29T09:42:04.824Z,26.04
2022-07-29T09:44:50.103Z,26.10
2022-07-29T09:47:19.468Z,26.26
2022-07-29T09:50:00.905Z,26.14
2022-07-29T09:52:30.161Z,26.10
2022-07-29T09:55:09.161Z,26.21
2022-07-29T09:57:36.978Z,26.22
2022-07-29T10:00:19.831Z,26.33
2022-07-29T10:02:48.678Z,26.37
2022-07-29T10:05:18.830Z,26.59
2022-07-29T10:07:53.724Z,26.79
2022-07-29T10:10:30.583Z,26.79
2022-07-29T10:13:08.874Z,26.72
2022-07-29T10:15:41.795Z,26.76
2022-07-29T10:18:10.536Z,26.73
2022-07-29T10:20:38.636Z,26.70
2022-07-29T10:23:06.119Z,26.73
2022-07-29T10:25:33.650Z,26.97
2022-07-29T10:28:00.964Z,26.94
2022-07-29T10:30:28.456Z,27.05
2022-07-29T10:33:30.917Z,27.33
2022-07-29T10:36:20.339Z,27.56
2022-07-29T10:39:26.897Z,27.70
2022-07-29T10:42:33.437Z,27.83
2022-07-29T10:45:04.368Z,28.00
2022-07-29T10:47:32.340Z,27.99
2022-07-29T10:50:05.844Z,27.92
2022-07-29T10:52:54.541Z,28.05
2022-07-29T10:55:49.532Z,28.20
2022-07-29T10:58:24.183Z,28.11
2022-07-29T11:00:54.097Z,28.27
2022-07-29T11:03:50.711Z,28.24
2022-07-29T11:06:26.647Z,28.31
2022-07-29T11:09:27.347Z,28.53
2022-07-29T11:12:25.256Z,28.56
2022-07-29T11:14:56.792Z,28.37
2022-07-29T11:17:25.299Z,28.72
2022-07-29T11:19:52.682Z,28.96
2022-07-29T11:22:36.875Z,29.12
2022-07-29T11:25:19.382Z,29.28
2022-07-29T11:28:23.127Z,28.71
2022-07-29T11:30:54.908Z,29.21
2022-07-29T11:36:28.054Z,29.41
2022-07-29T11:39:36.371Z,29.48
2022-07-29T11:42:28.266Z,29.60
2022-07-29T11:45:42.624Z,29.70
2022-07-29T11:48:31.468Z,29.46
2022-07-29T11:51:00.597Z,29.76
2022-07-29T11:53:29.111Z,30.10
2022-07-29T11:56:01.431Z,29.93
2022-07-29T11:58:30.114Z,30.16
2022-07-29T12:00:58.548Z,30.32
2022-07-29T12:03:33.516Z,30.40
2022-07-29T12:06:14.978Z,30.83
2022-07-29T12:07:01.471Z,29.25
2022-07-29T12:08:43.967Z,31.06
2022-07-29T12:11:22.855Z,30.74
2022-07-29T12:13:52.362Z,31.09
2022-07-29T12:16:29.168Z,30.87
2022-07-29T12:19:03.639Z,31.42
2022-07-29T12:21:56.580Z,31.61
2022-07-29T12:24:26.686Z,31.54
2022-07-29T12:27:02.579Z,31.34
2022-07-29T12:29:33.820Z,31.21
2022-07-29T12:32:06.978Z,30.38
2022-07-29T12:34:42.429Z,30.20
2022-07-29T12:37:11.120Z,30.39
2022-07-29T12:39:38.691Z,29.93
2022-07-29T12:42:18.358Z,30.13
2022-07-29T12:44:51.178Z,29.82
2022-07-29T12:47:19.723Z,29.79
2022-07-29T12:49:47.884Z,29.90
2022-07-29T12:52:31.193Z,29.83
2022-07-29T12:54:58.791Z,29.81
2022-07-29T12:57:26.840Z,29.84
2022-07-29T13:00:13.905Z,30.09
2022-07-29T13:02:43.554Z,30.09
2022-07-29T13:05:13.537Z,30.08
2022-07-29T13:07:55.167Z,29.97
2022-07-29T13:10:25.742Z,29.86
2022-07-29T13:13:16.778Z,29.93
2022-07-29T13:16:05.700Z,30.26
2022-07-29T13:18:38.757Z,29.89
2022-07-29T13:21:16.686Z,30.18
2022-07-29T13:23:45.946Z,30.46
2022-07-29T13:26:13.429Z,30.50
2022-07-29T13:28:41.000Z,30.72
2022-07-29T13:31:11.854Z,31.07
2022-07-29T13:33:38.971Z,31.19
2022-07-29T13:36:06.375Z,31.62
2022-07-29T13:38:33.333Z,31.71
2022-07-29T13:41:00.445Z,31.77
2022-07-29T13:43:27.515Z,31.87
2022-07-29T13:45:54.921Z,32.22
2022-07-29T13:48:21.955Z,32.46
2022-07-29T13:50:49.242Z,32.63
2022-07-29T13:53:17.818Z,33.02
2022-07-29T13:55:45.409Z,32.45
2022-07-29T13:58:12.549Z,32.04
2022-07-29T14:00:39.735Z,31.62
2022-07-29T14:03:07.402Z,31.63
2022-07-29T14:05:34.470Z,31.52
2022-07-29T14:08:01.466Z,31.63
2022-07-29T14:10:28.523Z,31.53
2022-07-29T14:12:55.571Z,31.85
2022-07-29T14:15:22.793Z,31.80
2022-07-29T14:17:49.970Z,31.38
2022-07-29T14:20:17.183Z,31.31
2022-07-29T14:22:45.303Z,31.44
2022-07-29T14:25:15.055Z,31.17
2022-07-29T14:27:43.809Z,31.00
2022-07-29T14:30:11.935Z,31.08
2022-07-29T14:32:38.897Z,30.97
2022-07-29T14:35:07.034Z,31.24
2022-07-29T14:37:39.767Z,31.19
2022-07-29T14:40:09.944Z,31.25
2022-07-29T14:42:38.010Z,31.25
2022-07-29T14:45:10.038Z,31.29
2022-07-29T14:47:38.588Z,31.69
2022-07-29T14:50:06.587Z,31.89
2022-07-29T14:52:33.684Z,32.02
2022-07-29T14:55:00.719Z,32.15
2022-07-29T14:57:28.022Z,32.01
2022-07-29T14:59:55.144Z,32.32
2022-07-29T15:02:23.737Z,32.32
2022-07-29T15:04:55.174Z,32.74
2022-07-29T15:07:22.283Z,32.54
2022-07-29T15:09:50.125Z,32.88
2022-07-29T15:12:17.478Z,33.15
2022-07-29T15:14:44.544Z,33.63
2022-07-29T15:17:11.612Z,33.43
2022-07-29T15:19:38.674Z,33.70
2022-07-29T15:22:11.855Z,33.60
2022-07-29T15:24:39.269Z,33.67
2022-07-29T15:27:06.447Z,33.42
2022-07-29T15:29:33.911Z,33.62
2022-07-29T15:32:01.298Z,33.96
2022-07-29T15:34:28.602Z,33.94
2022-07-29T15:36:55.613Z,34.45
2022-07-29T15:39:23.233Z,35.00
2022-07-29T15:41:51.314Z,35.25
2022-07-29T15:44:19.387Z,35.29
2022-07-29T15:47:04.315Z,36.05
2022-07-29T15:49:47.860Z,36.02
2022-07-29T15:52:25.115Z,35.85
2022-07-29T15:54:57.950Z,35.96
2022-07-29T15:57:25.348Z,36.13
2022-07-29T15:59:52.812Z,35.95
2022-07-29T16:02:20.035Z,35.62
2022-07-29T16:04:47.434Z,35.45
2022-07-29T16:07:15.445Z,34.61
2022-07-29T16:09:43.868Z,33.73
2022-07-29T16:12:15.435Z,33.63
2022-07-29T16:14:44.447Z,33.78
2022-07-29T16:17:15.026Z,33.79
2022-07-29T16:19:43.932Z,34.01
2022-07-29T16:22:11.615Z,34.08
2022-07-29T16:24:39.264Z,34.10
2022-07-29T16:27:06.696Z,34.41
2022-07-29T16:29:33.971Z,35.00
2022-07-29T16:32:01.410Z,36.39
2022-07-29T16:34:28.597Z,36.97
2022-07-29T16:36:55.564Z,37.12
2022-07-29T16:39:22.570Z,37.70
2022-07-29T16:41:49.765Z,35.64
2022-07-29T16:44:16.772Z,37.00
2022-07-29T16:46:45.798Z,36.36
2022-07-29T16:49:19.021Z,35.94
2022-07-29T16:51:47.937Z,38.13
2022-07-29T16:54:15.372Z,38.21
2022-07-29T16:56:42.571Z,38.86
2022-07-29T16:59:10.678Z,38.73
2022-07-29T17:01:38.052Z,36.60
2022-07-29T17:04:08.223Z,35.71
2022-07-29T17:06:40.279Z,38.79
2022-07-29T17:09:11.547Z,40.38
2022-07-29T17:11:52.856Z,41.07
2022-07-29T17:14:27.290Z,40.90
2022-07-29T17:17:01.047Z,41.09
2022-07-29T17:19:35.723Z,41.70
2022-07-29T17:22:12.905Z,41.00
2022-07-29T17:24:43.306Z,41.02
2022-07-29T17:27:11.032Z,39.61
2022-07-29T17:29:39.515Z,39.67
2022-07-29T17:32:08.143Z,40.01
2022-07-29T17:34:42.827Z,39.74
2022-07-29T17:37:12.222Z,38.02
2022-07-29T17:39:41.703Z,36.48
2022-07-29T17:42:14.244Z,35.16
2022-07-29T17:44:41.599Z,34.17
2022-07-29T17:47:15.828Z,33.72
2022-07-29T17:49:45.197Z,33.48
2022-07-29T17:52:12.299Z,33.26
2022-07-29T17:54:39.367Z,32.92
2022-07-29T17:57:06.365Z,32.47
2022-07-29T17:59:33.386Z,32.09
2022-07-29T18:02:00.530Z,32.06
2022-07-29T18:04:28.670Z,31.95
2022-07-29T18:06:55.944Z,31.62
2022-07-29T18:09:23.207Z,31.44
2022-07-29T18:11:50.241Z,31.47
2022-07-29T18:14:17.285Z,31.27
2022-07-29T18:16:44.496Z,30.99
2022-07-29T18:19:11.607Z,30.90
2022-07-29T18:21:51.863Z,30.83
2022-07-29T18:24:25.541Z,30.75
2022-07-29T18:26:53.675Z,30.61
2022-07-29T18:29:20.822Z,30.52
2022-07-29T18:31:47.790Z,30.48
2022-07-29T18:34:14.955Z,30.40
2022-07-29T18:36:42.100Z,30.31
2022-07-29T18:39:09.104Z,29.98
2022-07-29T18:41:54.119Z,29.72
2022-07-29T18:44:22.577Z,29.65
2022-07-29T18:46:51.855Z,29.41
2022-07-29T18:49:19.424Z,29.32
2022-07-29T18:51:46.601Z,29.26
2022-07-29T18:54:13.838Z,29.12
2022-07-29T18:56:41.116Z,28.94
2022-07-29T18:59:08.178Z,28.77
2022-07-29T19:01:35.370Z,28.72
2022-07-29T19:04:02.542Z,28.75
2022-07-29T19:06:29.896Z,28.63
2022-07-29T19:08:56.919Z,28.72
2022-07-29T19:11:23.958Z,28.63
2022-07-29T19:13:51.059Z,28.38
2022-07-29T19:16:18.489Z,28.22
2022-07-29T19:18:47.303Z,28.08
2022-07-29T19:21:14.339Z,28.06
2022-07-29T19:24:04.256Z,28.11
2022-07-29T19:26:29.598Z,28.02
2022-07-29T19:28:56.580Z,27.93
2022-07-29T19:31:23.769Z,28.02
2022-07-29T19:33:50.984Z,27.97
2022-07-29T19:36:18.064Z,27.82
2022-07-29T19:38:45.057Z,27.91
2022-07-29T19:41:13.180Z,27.78
2022-07-29T19:43:51.271Z,27.61
2022-07-29T19:46:23.597Z,27.62
2022-07-29T19:48:51.455Z,27.54
2022-07-29T19:51:18.650Z,27.56
2022-07-29T19:53:45.672Z,27.49
2022-07-29T19:56:12.664Z,27.54
2022-07-29T19:58:40.763Z,27.26
2022-07-29T20:01:10.690Z,27.31
2022-07-29T20:03:40.098Z,27.29
2022-07-29T20:06:07.741Z,27.18
2022-07-29T20:08:34.927Z,27.23
2022-07-29T20:11:02.882Z,27.24
2022-07-29T20:13:31.805Z,27.16
2022-07-29T20:16:05.270Z,27.07
2022-07-29T20:18:32.675Z,26.81
2022-07-29T20:21:01.273Z,26.85
2022-07-29T20:23:28.362Z,26.66
2022-07-29T20:26:00.852Z,26.63
2022-07-29T20:28:27.961Z,26.57
2022-07-29T20:30:55.074Z,26.56
2022-07-29T20:33:22.186Z,26.52
2022-07-29T20:35:49.206Z,26.49
2022-07-29T20:38:18.301Z,26.67
2022-07-29T20:40:45.853Z,26.45
2022-07-29T20:43:12.911Z,26.38
2022-07-29T20:45:39.987Z,26.37
2022-07-29T20:48:08.156Z,26.33
2022-07-29T20:50:35.501Z,26.26
2022-07-29T20:53:02.581Z,26.25
2022-07-29T20:55:29.638Z,26.08
2022-07-29T20:57:56.570Z,25.95
2022-07-29T21:00:23.600Z,25.88
2022-07-29T21:02:50.771Z,25.85
2022-07-29T21:05:17.765Z,25.83
2022-07-29T21:07:44.758Z,25.83
2022-07-29T21:10:12.197Z,25.70
2022-07-29T21:12:39.174Z,25.65
2022-07-29T21:15:06.889Z,25.59
2022-07-29T21:17:36.043Z,25.25
2022-07-29T21:20:06.668Z,25.25
2022-07-29T21:22:33.898Z,25.11
2022-07-29T21:25:01.476Z,24.87
2022-07-29T21:27:47.102Z,25.09
2022-07-29T21:30:14.171Z,24.83
2022-07-29T21:32:41.169Z,24.77
2022-07-29T21:35:18.252Z,24.92
2022-07-29T21:37:54.458Z,24.92
2022-07-29T21:40:21.639Z,24.86
2022-07-29T21:42:48.648Z,24.82
2022-07-29T21:45:16.849Z,24.83
2022-07-29T21:47:43.820Z,24.81
2022-07-29T21:50:10.840Z,24.76
2022-07-29T21:52:38.915Z,24.62
2022-07-29T21:55:07.829Z,24.68
2022-07-29T21:57:37.760Z,24.59
2022-07-29T22:00:08.362Z,24.41
2022-07-29T22:02:39.630Z,24.33
2022-07-29T22:05:06.959Z,24.20
2022-07-29T22:07:56.261Z,24.12
2022-07-29T22:10:21.107Z,24.07
2022-07-29T22:12:52.258Z,24.11
2022-07-29T22:15:19.783Z,24.06
2022-07-29T22:17:47.071Z,24.00
2022-07-29T22:20:14.235Z,23.85
2022-07-29T22:22:41.866Z,23.87
2022-07-29T22:25:10.022Z,23.78
2022-07-29T22:27:37.965Z,23.72
2022-07-29T22:30:06.831Z,23.76
2022-07-29T22:32:34.428Z,23.70
2022-07-29T22:35:01.603Z,23.67
2022-07-29T22:37:28.711Z,23.56
2022-07-29T22:39:56.026Z,23.57
2022-07-29T22:42:23.202Z,23.41
2022-07-29T22:44:50.294Z,23.41
2022-07-29T22:47:17.317Z,23.31
2022-07-29T22:49:44.559Z,23.23
2022-07-29T22:52:11.761Z,23.19
2022-07-29T22:54:41.507Z,23.35
2022-07-29T22:57:08.547Z,23.27
2022-07-29T22:59:35.630Z,23.34
2022-07-29T23:02:02.611Z,23.38
2022-07-29T23:04:29.640Z,23.33
2022-07-29T23:06:57.056Z,23.15
2022-07-29T23:09:24.168Z,23.07
2022-07-29T23:11:51.148Z,23.00
2022-07-29T23:14:18.132Z,22.85
2022-07-29T23:16:45.152Z,22.79
2022-07-29T23:19:12.243Z,22.72
2022-07-29T23:21:39.321Z,22.73
2022-07-29T23:24:06.534Z,22.77
2022-07-29T23:26:33.615Z,22.72
2022-07-29T23:29:00.610Z,22.79
2022-07-29T23:31:27.642Z,22.60
2022-07-29T23:33:54.585Z,22.64
2022-07-29T23:36:21.709Z,22.48
2022-07-29T23:38:49.144Z,22.54
2022-07-29T23:41:16.311Z,22.41
2022-07-29T23:43:43.393Z,22.29
2022-07-29T23:46:10.379Z,22.49
2022-07-29T23:48:37.494Z,22.36
2022-07-29T23:51:04.472Z,22.24
2022-07-29T23:53:31.523Z,22.30
2022-07-29T23:55:58.522Z,22.20
2022-07-29T23:58:25.522Z,22.19
